createdAt,value
2023-04-06T00:01:23.988Z,7.33
2023-04-06T00:06:27.825Z,7.28
2023-04-06T00:11:32.031Z,7.28
2023-04-06T00:16:34.925Z,7.22
2023-04-06T00:21:37.816Z,7.25
2023-04-06T00:26:42.114Z,7.14
2023-04-06T00:31:45.019Z,7.21
2023-04-06T00:36:47.840Z,7.24
2023-04-06T00:41:54.312Z,7.26
2023-04-06T00:46:57.096Z,7.33
2023-04-06T00:51:59.846Z,7.36
2023-04-06T00:57:04.074Z,7.34
2023-04-06T01:02:07.463Z,7.17
2023-04-06T01:07:16.957Z,7.39
2023-04-06T01:12:34.442Z,7.38
2023-04-06T01:17:41.530Z,7.38
2023-04-06T01:22:50.833Z,7.46
2023-04-06T01:27:54.904Z,7.52
2023-04-06T01:33:01.187Z,7.48
2023-04-06T01:38:16.347Z,7.48
2023-04-06T01:43:20.803Z,7.51
2023-04-06T01:48:37.447Z,7.49
2023-04-06T01:53:51.928Z,7.45
2023-04-06T01:58:57.705Z,7.43
2023-04-06T02:04:06.059Z,7.46
2023-04-06T02:09:10.769Z,7.36
2023-04-06T02:14:37.394Z,6.88
2023-04-06T02:19:40.924Z,7.27
2023-04-06T02:24:45.208Z,7.25
2023-04-06T02:29:49.060Z,7.31
2023-04-06T02:34:56.512Z,7.40
2023-04-06T02:40:01.964Z,7.18
2023-04-06T02:45:08.284Z,7.36
2023-04-06T02:50:19.627Z,7.38
2023-04-06T02:55:35.958Z,7.40
2023-04-06T03:00:39.560Z,7.19
2023-04-06T03:05:42.596Z,7.14
2023-04-06T03:10:47.871Z,7.33
2023-04-06T03:15:52.769Z,7.23
2023-04-06T03:20:57.675Z,7.12
2023-04-06T03:26:23.194Z,7.06
2023-04-06T03:31:28.333Z,7.03
2023-04-06T03:37:09.893Z,7.13
2023-04-06T03:42:20.360Z,7.07
2023-04-06T03:47:32.695Z,7.17
2023-04-06T03:52:40.139Z,7.09
2023-04-06T03:57:44.377Z,7.20
2023-04-06T04:02:47.383Z,7.21
2023-04-06T04:07:50.413Z,7.24
2023-04-06T04:12:54.759Z,7.20
2023-04-06T04:17:58.252Z,7.11
2023-04-06T04:23:01.073Z,7.14
2023-04-06T04:28:08.881Z,7.02
2023-04-06T04:33:13.634Z,6.91
2023-04-06T04:38:18.166Z,6.95
2023-04-06T04:43:28.379Z,6.81
2023-04-06T04:48:32.675Z,6.85
2023-04-06T04:53:38.706Z,6.81
2023-04-06T04:58:54.095Z,6.72
2023-04-06T05:03:57.534Z,6.58
2023-04-06T05:09:00.379Z,6.88
2023-04-06T05:14:08.242Z,7.10
2023-04-06T05:19:12.579Z,7.31
2023-04-06T05:24:19.919Z,7.45
2023-04-06T05:29:25.966Z,7.32
2023-04-06T05:34:28.971Z,7.35
2023-04-06T05:39:32.947Z,7.22
2023-04-06T05:44:39.070Z,7.52
2023-04-06T05:49:49.228Z,7.11
2023-04-06T05:55:00.932Z,7.40
2023-04-06T06:00:07.817Z,7.42
2023-04-06T06:05:23.107Z,7.51
2023-04-06T06:10:27.198Z,7.67
2023-04-06T06:15:31.695Z,7.76
2023-04-06T06:20:34.897Z,7.97
2023-04-06T06:25:41.418Z,8.21
2023-04-06T06:30:45.800Z,8.35
2023-04-06T06:35:54.048Z,8.29
2023-04-06T06:40:57.188Z,8.66
2023-04-06T06:46:05.044Z,8.50
2023-04-06T06:51:08.055Z,8.18
2023-04-06T06:56:11.469Z,8.22
2023-04-06T07:01:16.073Z,8.40
2023-04-06T07:06:19.523Z,8.57
2023-04-06T07:11:22.753Z,8.63
2023-04-06T07:16:27.149Z,8.79
2023-04-06T07:21:31.731Z,8.86
2023-04-06T07:26:34.730Z,8.94
2023-04-06T07:31:38.992Z,8.90
2023-04-06T07:36:42.116Z,8.89
2023-04-06T07:41:45.334Z,9.11
2023-04-06T07:46:49.673Z,9.24
2023-04-06T07:51:53.342Z,9.04
2023-04-06T07:56:56.796Z,9.12
2023-04-06T08:02:01.487Z,9.17
2023-04-06T08:07:04.675Z,9.49
2023-04-06T08:12:07.888Z,9.17
2023-04-06T08:17:12.233Z,9.31
2023-04-06T08:22:15.223Z,9.65
2023-04-06T08:27:18.140Z,9.65
2023-04-06T08:32:22.447Z,9.64
2023-04-06T08:37:25.468Z,9.52
2023-04-06T08:42:28.850Z,9.98
2023-04-06T08:47:33.250Z,9.99
2023-04-06T08:52:36.294Z,10.00
2023-04-06T08:57:39.428Z,9.62
2023-04-06T09:02:47.691Z,9.78
2023-04-06T09:07:50.639Z,10.12
2023-04-06T09:12:58.852Z,10.54
2023-04-06T09:18:03.482Z,10.57
2023-04-06T09:23:06.509Z,10.94
2023-04-06T09:28:09.433Z,11.02
2023-04-06T09:33:13.753Z,11.42
2023-04-06T09:38:16.823Z,11.52
2023-04-06T09:43:26.298Z,11.54
2023-04-06T09:48:33.176Z,10.92
2023-04-06T09:53:37.518Z,10.94
2023-04-06T09:58:43.421Z,11.02
2023-04-06T10:03:53.924Z,11.03
2023-04-06T10:08:58.865Z,11.00
2023-04-06T10:14:01.846Z,11.15
2023-04-06T10:19:09.232Z,10.20
2023-04-06T10:24:13.218Z,10.04
2023-04-06T10:29:16.085Z,10.79
2023-04-06T10:34:20.414Z,11.03
2023-04-06T10:39:28.069Z,10.57
2023-04-06T10:44:31.039Z,10.53
2023-04-06T10:49:36.608Z,10.32
2023-04-06T10:54:43.798Z,9.77
2023-04-06T10:59:46.690Z,9.65
2023-04-06T11:04:58.432Z,10.20
2023-04-06T11:10:14.585Z,10.20
2023-04-06T11:15:19.700Z,10.20
2023-04-06T11:20:23.990Z,9.99
2023-04-06T11:25:28.637Z,9.86
2023-04-06T11:30:31.617Z,10.52
2023-04-06T11:35:36.800Z,10.13
2023-04-06T11:40:39.737Z,9.82
2023-04-06T11:45:44.085Z,10.36
2023-04-06T11:50:50.128Z,10.42
2023-04-06T11:55:53.129Z,9.77
2023-04-06T12:00:56.067Z,9.82
2023-04-06T12:06:00.895Z,9.73
2023-04-06T12:11:03.806Z,10.01
2023-04-06T12:16:07.622Z,10.24
2023-04-06T12:21:11.987Z,9.99
2023-04-06T12:26:15.028Z,9.88
2023-04-06T12:31:18.273Z,9.56
2023-04-06T12:36:23.227Z,9.56
2023-04-06T12:41:26.196Z,9.60
2023-04-06T12:46:30.961Z,9.45
2023-04-06T12:51:41.479Z,9.42
2023-04-06T12:56:44.695Z,9.52
2023-04-06T13:01:47.740Z,9.39
2023-04-06T13:06:52.014Z,9.44
2023-04-06T13:11:54.981Z,9.20
2023-04-06T13:16:58.454Z,9.56
2023-04-06T13:22:02.751Z,9.54
2023-04-06T13:27:05.817Z,9.52
2023-04-06T13:32:10.995Z,9.50
2023-04-06T13:37:15.837Z,9.38
2023-04-06T13:42:18.752Z,9.38
2023-04-06T13:47:22.240Z,9.27
2023-04-06T13:52:26.597Z,9.50
2023-04-06T13:57:30.716Z,9.48
2023-04-06T14:02:33.703Z,9.25
2023-04-06T14:07:38.041Z,9.19
2023-04-06T14:12:40.944Z,9.51
2023-04-06T14:17:43.833Z,9.37
2023-04-06T14:22:50.356Z,9.34
2023-04-06T14:27:53.353Z,9.09
2023-04-06T14:32:58.946Z,9.13
2023-04-06T14:38:03.172Z,8.89
2023-04-06T14:43:06.057Z,9.00
2023-04-06T14:48:12.884Z,9.13
2023-04-06T14:53:17.363Z,9.20
2023-04-06T14:58:20.413Z,9.25
2023-04-06T15:03:47.004Z,9.11
2023-04-06T15:08:52.018Z,9.25
2023-04-06T15:13:54.904Z,9.03
2023-04-06T15:18:57.834Z,9.09
2023-04-06T15:24:02.232Z,9.41
2023-04-06T15:29:05.386Z,9.22
2023-04-06T15:39:33.541Z,8.86
2023-04-06T15:44:36.555Z,9.11
2023-04-06T15:49:39.455Z,9.09
2023-04-06T15:54:43.671Z,8.75
2023-04-06T15:59:46.521Z,8.95
2023-04-06T16:04:49.431Z,8.95
2023-04-06T16:09:53.667Z,9.11
2023-04-06T16:14:59.233Z,9.07
2023-04-06T16:20:02.135Z,8.77
2023-04-06T16:25:07.143Z,8.82
2023-04-06T16:30:11.082Z,9.11
2023-04-06T16:35:13.929Z,8.88
2023-04-06T16:40:18.321Z,9.32
2023-04-06T16:45:21.534Z,9.20
2023-04-06T16:50:24.394Z,9.54
2023-04-06T16:55:28.605Z,9.60
2023-04-06T17:00:31.514Z,9.74
2023-04-06T17:05:34.820Z,9.38
2023-04-06T17:15:49.850Z,9.71
2023-04-06T17:20:52.825Z,9.89
2023-04-06T17:25:57.917Z,9.86
2023-04-06T17:31:01.142Z,10.06
2023-04-06T17:36:04.397Z,9.90
2023-04-06T17:41:08.623Z,9.74
2023-04-06T17:46:11.645Z,9.67
2023-04-06T17:51:15.369Z,9.58
2023-04-06T17:56:19.515Z,9.87
2023-04-06T18:01:22.415Z,9.89
2023-04-06T18:06:26.250Z,9.71
2023-04-06T18:11:32.580Z,9.91
2023-04-06T18:16:35.622Z,9.84
2023-04-06T18:21:38.463Z,9.88
2023-04-06T18:26:42.727Z,9.84
2023-04-06T18:31:50.514Z,9.98
2023-04-06T18:36:53.426Z,10.06
2023-04-06T18:42:00.142Z,10.27
2023-04-06T18:47:02.963Z,10.21
2023-04-06T18:52:06.402Z,10.32
2023-04-06T18:57:11.253Z,10.17
2023-04-06T19:02:14.430Z,10.33
2023-04-06T19:07:17.855Z,10.29
2023-04-06T19:12:22.116Z,10.34
2023-04-06T19:17:24.932Z,10.39
2023-04-06T19:22:28.005Z,10.51
2023-04-06T19:27:32.481Z,10.44
2023-04-06T19:32:35.630Z,10.49
2023-04-06T19:37:38.928Z,10.64
2023-04-06T19:42:43.158Z,10.69
2023-04-06T19:47:46.040Z,11.01
2023-04-06T19:52:49.772Z,11.04
2023-04-06T19:57:54.352Z,11.15
2023-04-06T20:02:57.326Z,11.00
2023-04-06T20:08:00.737Z,11.08
2023-04-06T20:13:05.032Z,11.10
2023-04-06T20:18:09.093Z,11.10
2023-04-06T20:23:12.776Z,11.21
2023-04-06T20:28:17.383Z,11.04
2023-04-06T20:33:20.351Z,11.11
2023-04-06T20:38:32.377Z,11.10
2023-04-06T20:43:37.631Z,11.18
2023-04-06T20:48:40.610Z,11.03
2023-04-06T20:53:43.395Z,11.04
2023-04-06T20:58:47.676Z,10.92
2023-04-06T21:03:51.065Z,10.93
2023-04-06T21:08:53.952Z,10.97
2023-04-06T21:13:58.178Z,10.99
2023-04-06T21:19:01.031Z,10.88
2023-04-06T21:24:04.300Z,10.84
2023-04-06T21:29:08.593Z,10.80
2023-04-06T21:34:11.849Z,10.84
2023-04-06T21:39:14.703Z,10.77
2023-04-06T21:44:19.035Z,10.71
2023-04-06T21:49:21.862Z,10.66
2023-04-06T21:54:24.636Z,10.54
2023-04-06T21:59:28.852Z,10.52
2023-04-06T22:04:32.302Z,10.50
2023-04-06T22:09:35.338Z,10.44
2023-04-06T22:14:39.517Z,10.49
2023-04-06T22:19:42.470Z,10.55
2023-04-06T22:24:45.409Z,10.51
2023-04-06T22:29:49.588Z,10.39
2023-04-06T22:34:52.487Z,10.47
2023-04-06T22:39:56.031Z,10.56
2023-04-06T22:45:00.185Z,10.47
2023-04-06T22:50:03.031Z,10.48
2023-04-06T22:55:06.411Z,10.50
2023-04-06T23:00:11.902Z,10.46
2023-04-06T23:05:14.827Z,10.25
2023-04-06T23:10:17.875Z,10.27
2023-04-06T23:15:22.036Z,10.25
2023-04-06T23:20:24.962Z,10.33
2023-04-06T23:25:27.806Z,10.11
2023-04-06T23:30:31.927Z,10.11
2023-04-06T23:35:34.740Z,10.29
2023-04-06T23:40:38.966Z,10.32
2023-04-06T23:45:43.406Z,10.39
2023-04-06T23:50:46.455Z,10.47
2023-04-06T23:55:49.313Z,10.42
